Time;durP1;ratioP1;P1;durP2;ratioP2;P2;SDS_P1;SDS_P2;PMS_P1;PMS_P2;Temp;Humidity;BMP_temperature;BMP_pressure;BME280_temperature;BME280_humidity;BME280_pressure;Samples;Min_cycle;Max_cycle;Signal;HPM_P1;HPM_P2
2022/12/12 00:01:29;;;;;;;;;6.20;6.20;;;;;;;;5268218;28;8776;-77
2022/12/12 00:04:19;;;;;;;;;11.20;11.20;;;;;;;;5267884;28;8781;-76
2022/12/12 00:06:50;;;;;;;;;9.20;7.80;;;;;;;;5234347;28;8764;-73
2022/12/12 00:09:21;;;;;;;;;5.20;5.20;;;;;;;;5269197;28;8785;-73
2022/12/12 00:11:52;;;;;;;;;1.00;1.00;;;;;;;;5250896;28;8851;-73
2022/12/12 00:14:42;;;;;;;;;4.00;4.00;;;;;;;;5244217;28;9731;-73
2022/12/12 00:17:14;;;;;;;;;9.20;8.20;;;;;;;;5230192;28;8783;-75
2022/12/12 00:19:45;;;;;;;;;9.60;7.40;;;;;;;;5231008;28;8915;-75
2022/12/12 00:22:16;;;;;;;;;10.00;10.00;;;;;;;;5229901;28;8833;-74
2022/12/12 00:24:47;;;;;;;;;10.80;10.80;;;;;;;;5248509;28;8795;-75
2022/12/12 00:27:18;;;;;;;;;7.80;7.80;;;;;;;;5230006;28;8802;-75
2022/12/12 00:29:53;;;;;;;;;12.00;12.00;;;;;;;;5230571;28;8768;-75
2022/12/12 00:32:24;;;;;;;;;21.20;20.40;;;;;;;;5231412;28;8811;-75
2022/12/12 00:34:56;;;;;;;;;15.60;15.60;;;;;;;;5246839;28;8867;-75
2022/12/12 00:37:27;;;;;;;;;13.20;13.20;;;;;;;;5230338;28;8795;-74
2022/12/12 00:40:16;;;;;;;;;7.20;6.80;;;;;;;;5239634;28;8783;-74
2022/12/12 00:42:48;;;;;;;;;13.80;13.80;;;;;;;;5230597;28;8892;-75
2022/12/12 00:45:20;;;;;;;;;16.00;14.40;;;;;;;;5246440;28;8795;-74
2022/12/12 00:47:52;;;;;;;;;9.20;9.20;;;;;;;;5246153;28;8795;-74
2022/12/12 00:50:23;;;;;;;;;6.60;6.60;;;;;;;;5262823;28;8814;-74
2022/12/12 00:52:55;;;;;;;;;6.40;6.40;;;;;;;;5245657;28;8795;-74
2022/12/12 00:55:26;;;;;;;;;5.20;5.20;;;;;;;;5240643;28;8839;-76
2022/12/12 00:57:58;;;;;;;;;15.60;15.60;;;;;;;;5229474;28;8779;-76
2022/12/12 01:00:29;;;;;;;;;9.20;9.00;;;;;;;;5213077;28;8779;-74
2022/12/12 01:03:00;;;;;;;;;9.20;9.20;;;;;;;;5245773;28;8876;-74
2022/12/12 01:05:32;;;;;;;;;6.40;6.40;;;;;;;;5246293;28;8785;-76
2022/12/12 01:08:03;;;;;;;;;10.20;10.00;;;;;;;;5245599;28;8854;-76
2022/12/12 01:10:34;;;;;;;;;10.80;10.80;;;;;;;;5265902;28;8792;-74
2022/12/12 01:13:05;;;;;;;;;10.40;10.40;;;;;;;;5266173;28;8831;-72
2022/12/12 01:15:36;;;;;;;;;5.20;4.00;;;;;;;;5261487;28;8807;-73
2022/12/12 01:18:07;;;;;;;;;7.60;7.60;;;;;;;;5212356;28;8798;-75
2022/12/12 01:20:39;;;;;;;;;6.00;6.00;;;;;;;;5229133;28;8775;-74
2022/12/12 01:23:11;;;;;;;;;6.80;6.80;;;;;;;;5246938;28;9529;-74
2022/12/12 01:25:43;;;;;;;;;6.00;6.00;;;;;;;;5228715;28;8790;-72
2022/12/12 01:28:33;;;;;;;;;1.00;1.00;;;;;;;;5246469;28;8829;-74
2022/12/12 01:31:05;;;;;;;;;3.60;3.60;;;;;;;;5245622;28;8807;-75
2022/12/12 01:33:37;;;;;;;;;4.00;4.00;;;;;;;;5229248;28;8916;-76
2022/12/12 01:36:08;;;;;;;;;3.00;3.00;;;;;;;;5212614;28;8767;-77
2022/12/12 01:38:39;;;;;;;;;5.20;5.20;;;;;;;;5247143;28;8779;-76
2022/12/12 01:41:11;;;;;;;;;7.40;7.40;;;;;;;;5245391;28;8937;-78
2022/12/12 01:43:42;;;;;;;;;3.00;3.00;;;;;;;;5212298;28;8921;-79
2022/12/12 01:46:32;;;;;;;;;6.80;6.00;;;;;;;;5245481;28;8787;-76
2022/12/12 01:49:09;;;;;;;;;1.00;1.00;;;;;;;;5246692;28;8763;-74
2022/12/12 01:51:41;;;;;;;;;6.60;6.00;;;;;;;;5211991;28;8814;-74
2022/12/12 01:54:24;;;;;;;;;2.00;2.00;;;;;;;;5258945;28;8797;-76
2022/12/12 01:57:17;;;;;;;;;13.40;12.20;;;;;;;;5266508;28;8784;-74
2022/12/12 01:59:49;;;;;;;;;9.40;9.40;;;;;;;;5249951;28;8785;-74
2022/12/12 02:02:20;;;;;;;;;1.00;1.00;;;;;;;;5266610;28;8784;-75
2022/12/12 02:04:51;;;;;;;;;3.00;3.00;;;;;;;;5265989;28;8915;-74
2022/12/12 02:07:22;;;;;;;;;2.20;2.20;;;;;;;;5267299;28;8776;-76
2022/12/12 02:09:53;;;;;;;;;1.00;1.00;;;;;;;;5236842;28;8803;-76
2022/12/12 02:12:24;;;;;;;;;3.40;3.40;;;;;;;;5235147;28;8825;-75
2022/12/12 02:14:56;;;;;;;;;0.00;0.00;;;;;;;;5233112;28;8783;-75
2022/12/12 02:17:40;;;;;;;;;3.00;3.00;;;;;;;;5232630;28;8787;-75
2022/12/12 02:20:24;;;;;;;;;6.20;6.00;;;;;;;;5232658;28;8910;-75
2022/12/12 02:23:07;;;;;;;;;1.40;1.40;;;;;;;;5249800;28;8787;-73
2022/12/12 02:25:51;;;;;;;;;4.80;4.80;;;;;;;;5232213;28;8790;-73
2022/12/12 02:28:48;;;;;;;;;4.00;4.00;;;;;;;;5242018;28;8802;-79
2022/12/12 02:31:26;;;;;;;;;6.60;5.20;;;;;;;;5252889;28;8845;-76
2022/12/12 02:33:57;;;;;;;;;6.80;6.80;;;;;;;;5232360;28;9526;-74
2022/12/12 02:36:28;;;;;;;;;8.60;8.60;;;;;;;;5248931;28;8787;-75
2022/12/12 02:39:36;;;;;;;;;0.00;0.00;;;;;;;;5249091;28;8795;-75
2022/12/12 02:42:30;;;;;;;;;4.40;4.40;;;;;;;;5248682;28;9545;-74
2022/12/12 02:45:07;;;;;;;;;3.00;3.00;;;;;;;;5248801;28;8845;-74
2022/12/12 02:48:00;;;;;;;;;41.20;38.60;;;;;;;;5249153;28;8818;-75
2022/12/12 02:50:34;;;;;;;;;2.20;2.20;;;;;;;;5232565;28;8822;-72
2022/12/12 02:53:05;;;;;;;;;5.40;5.40;;;;;;;;5236948;28;9535;-74
2022/12/12 02:55:36;;;;;;;;;4.00;4.00;;;;;;;;5232343;28;8791;-74
2022/12/12 02:58:07;;;;;;;;;6.20;6.20;;;;;;;;5248196;28;8803;-75
2022/12/12 03:00:44;;;;;;;;;1.00;1.00;;;;;;;;5239416;28;8797;-74
2022/12/12 03:09:47;;;;;;;;;4.40;4.40;;;;;;;;5232895;28;8779;-75
2022/12/12 03:12:27;;;;;;;;;19.80;18.40;;;;;;;;5234023;28;8783;-75
2022/12/12 03:15:12;;;;;;;;;4.40;4.40;;;;;;;;5266617;28;8772;-73
2022/12/12 03:17:57;;;;;;;;;7.00;7.00;;;;;;;;5235795;28;8793;-73
2022/12/12 03:20:35;;;;;;;;;1.00;1.00;;;;;;;;5234954;28;8853;-73
2022/12/12 03:23:13;;;;;;;;;4.00;3.60;;;;;;;;5252509;28;9561;-73
2022/12/12 03:26:06;;;;;;;;;3.00;3.00;;;;;;;;5250572;28;8784;-73
2022/12/12 03:28:51;;;;;;;;;3.00;3.00;;;;;;;;5214911;28;8755;-73
2022/12/12 03:31:26;;;;;;;;;4.00;3.20;;;;;;;;5265011;28;8834;-73
2022/12/12 03:34:18;;;;;;;;;4.00;4.00;;;;;;;;5217530;28;8865;-73
2022/12/12 03:36:52;;;;;;;;;0.00;0.00;;;;;;;;5268377;28;8796;-73
2022/12/12 03:39:44;;;;;;;;;2.60;2.60;;;;;;;;5268783;28;9000;-72
2022/12/12 03:42:25;;;;;;;;;3.00;3.00;;;;;;;;5234444;28;8797;-74
2022/12/12 03:45:01;;;;;;;;;3.60;3.60;;;;;;;;5246557;28;8788;-74
2022/12/12 03:47:36;;;;;;;;;4.00;4.00;;;;;;;;5236365;28;8812;-74
2022/12/12 03:50:15;;;;;;;;;17.00;16.60;;;;;;;;5246518;28;9537;-73
2022/12/12 03:53:09;;;;;;;;;19.60;18.60;;;;;;;;5263797;28;8822;-73
2022/12/12 03:55:46;;;;;;;;;88.20;70.80;;;;;;;;5267215;28;8789;-73
2022/12/12 03:58:22;;;;;;;;;21.80;19.40;;;;;;;;5234770;28;8780;-73
2022/12/12 04:00:56;;;;;;;;;6.20;6.20;;;;;;;;5251265;28;8784;-73
2022/12/12 04:03:46;;;;;;;;;9.00;8.80;;;;;;;;5267465;28;8801;-73
2022/12/12 04:06:27;;;;;;;;;6.60;6.60;;;;;;;;5252692;28;8835;-72
2022/12/12 04:14:57;;;;;;;;;6.40;4.80;;;;;;;;5247890;28;8767;-73
2022/12/12 04:17:34;;;;;;;;;31.80;31.00;;;;;;;;5230349;28;8787;-73
2022/12/12 04:23:29;;;;;;;;;38.40;35.00;;;;;;;;5246466;28;8799;-73
2022/12/12 04:29:17;;;;;;;;;22.00;21.40;;;;;;;;5251990;28;8807;-73
2022/12/12 04:31:49;;;;;;;;;19.40;19.40;;;;;;;;5245512;28;8827;-74
2022/12/12 04:34:33;;;;;;;;;16.60;15.80;;;;;;;;5229510;28;8836;-73
2022/12/12 04:37:06;;;;;;;;;25.00;24.20;;;;;;;;5229970;28;8881;-75
2022/12/12 04:39:38;;;;;;;;;12.60;12.20;;;;;;;;5213369;28;8767;-73
2022/12/12 04:42:17;;;;;;;;;26.60;26.20;;;;;;;;5262191;28;8877;-74
2022/12/12 04:45:00;;;;;;;;;52.40;48.60;;;;;;;;5269453;28;9507;-74
2022/12/12 04:47:51;;;;;;;;;25.20;25.20;;;;;;;;5244915;28;8795;-74
2022/12/12 04:50:43;;;;;;;;;20.20;20.20;;;;;;;;5231889;28;8838;-74
2022/12/12 04:53:34;;;;;;;;;19.00;18.60;;;;;;;;5244665;28;9522;-76
2022/12/12 04:56:07;;;;;;;;;25.00;25.00;;;;;;;;5212478;28;8802;-76
2022/12/12 04:58:39;;;;;;;;;14.60;14.60;;;;;;;;5246195;28;8844;-74
2022/12/12 05:01:16;;;;;;;;;21.00;19.40;;;;;;;;5229259;28;8783;-76
2022/12/12 05:04:11;;;;;;;;;19.00;19.00;;;;;;;;5212678;28;8791;-76
2022/12/12 05:06:45;;;;;;;;;17.40;16.20;;;;;;;;5240820;28;8796;-70
2022/12/12 05:09:17;;;;;;;;;14.60;14.60;;;;;;;;5249659;28;9573;-70
2022/12/12 05:11:48;;;;;;;;;4.60;3.60;;;;;;;;5249820;28;9530;-70
2022/12/12 05:14:20;;;;;;;;;13.00;13.00;;;;;;;;5233635;28;8977;-70
2022/12/12 05:16:53;;;;;;;;;10.00;9.20;;;;;;;;5226208;28;8831;-70
2022/12/12 05:19:25;;;;;;;;;13.40;13.40;;;;;;;;5244510;28;8781;-68
2022/12/12 05:21:56;;;;;;;;;19.40;19.00;;;;;;;;5232813;28;8813;-71
2022/12/12 05:24:30;;;;;;;;;26.60;26.60;;;;;;;;5247971;28;8784;-69
2022/12/12 05:27:01;;;;;;;;;24.00;22.80;;;;;;;;5265433;28;8818;-71
2022/12/12 05:29:32;;;;;;;;;16.40;15.00;;;;;;;;5247498;28;8795;-71
2022/12/12 05:32:03;;;;;;;;;38.80;35.80;;;;;;;;5230999;28;8943;-71
2022/12/12 05:34:53;;;;;;;;;12.00;12.00;;;;;;;;5265818;28;8812;-70
2022/12/12 05:37:24;;;;;;;;;6.00;6.00;;;;;;;;5236070;28;8913;-71
2022/12/12 05:39:55;;;;;;;;;9.00;8.60;;;;;;;;5230959;28;8985;-71
2022/12/12 05:42:27;;;;;;;;;8.20;8.00;;;;;;;;5252382;28;8803;-71
2022/12/12 05:44:58;;;;;;;;;12.40;12.00;;;;;;;;5259453;28;8794;-73
2022/12/12 05:47:29;;;;;;;;;68.00;55.00;;;;;;;;5274811;28;8775;-73
2022/12/12 05:50:01;;;;;;;;;24.20;23.20;;;;;;;;5262819;28;8915;-72
2022/12/12 05:52:34;;;;;;;;;33.60;32.80;;;;;;;;5261326;28;8815;-72
2022/12/12 05:55:06;;;;;;;;;23.00;23.00;;;;;;;;5260901;28;8813;-70
2022/12/12 05:57:37;;;;;;;;;41.80;41.00;;;;;;;;5261224;28;8784;-71
2022/12/12 06:00:09;;;;;;;;;57.60;49.00;;;;;;;;5236039;28;8787;-72
2022/12/12 06:02:40;;;;;;;;;30.80;28.00;;;;;;;;5228021;28;8791;-72
2022/12/12 06:05:11;;;;;;;;;31.20;28.60;;;;;;;;5228484;28;8771;-72
2022/12/12 06:07:42;;;;;;;;;58.00;51.40;;;;;;;;5229281;28;8814;-72
2022/12/12 06:10:13;;;;;;;;;34.25;33.50;;;;;;;;5228173;28;8803;-73
2022/12/12 06:12:45;;;;;;;;;52.20;45.20;;;;;;;;5244721;28;9198;-71
2022/12/12 06:15:18;;;;;;;;;25.60;25.60;;;;;;;;5220132;28;8860;-72
2022/12/12 06:17:50;;;;;;;;;15.60;14.80;;;;;;;;5241871;28;8819;-70
2022/12/12 06:20:40;;;;;;;;;13.80;13.80;;;;;;;;5240474;28;8795;-72
2022/12/12 06:23:11;;;;;;;;;9.00;9.00;;;;;;;;5244803;28;8842;-71
2022/12/12 06:25:43;;;;;;;;;20.40;20.40;;;;;;;;5257086;28;8801;-71
2022/12/12 06:28:14;;;;;;;;;16.20;16.20;;;;;;;;5247560;28;8837;-72
2022/12/12 06:30:45;;;;;;;;;19.80;18.80;;;;;;;;5244138;28;8851;-71
2022/12/12 06:33:17;;;;;;;;;12.00;12.00;;;;;;;;5222562;28;8780;-71
2022/12/12 06:36:01;;;;;;;;;14.20;13.20;;;;;;;;5244568;28;8791;-71
2022/12/12 06:38:33;;;;;;;;;16.40;16.40;;;;;;;;5245731;28;8810;-71
2022/12/12 06:41:05;;;;;;;;;14.60;14.60;;;;;;;;5211541;28;8787;-71
2022/12/12 06:43:37;;;;;;;;;17.20;15.80;;;;;;;;5211299;28;8929;-72
2022/12/12 06:46:11;;;;;;;;;12.00;12.00;;;;;;;;5244691;28;8778;-71
2022/12/12 06:48:43;;;;;;;;;13.60;13.20;;;;;;;;5211428;28;8791;-71
2022/12/12 06:51:17;;;;;;;;;36.00;35.00;;;;;;;;5244872;28;8857;-71
2022/12/12 06:53:49;;;;;;;;;25.80;25.40;;;;;;;;5240460;28;8787;-71
2022/12/12 06:56:21;;;;;;;;;17.20;17.20;;;;;;;;5248229;28;9730;-71
2022/12/12 06:58:53;;;;;;;;;27.00;26.20;;;;;;;;5231722;28;8783;-71
2022/12/12 07:01:43;;;;;;;;;43.20;38.40;;;;;;;;5234116;28;8844;-72
2022/12/12 07:04:14;;;;;;;;;34.80;34.00;;;;;;;;5249199;28;9477;-72
2022/12/12 07:06:45;;;;;;;;;14.60;14.60;;;;;;;;5248240;28;8807;-70
2022/12/12 07:09:16;;;;;;;;;10.00;10.00;;;;;;;;5266816;28;8787;-71
2022/12/12 07:12:06;;;;;;;;;11.80;11.80;;;;;;;;5269424;28;8812;-71
2022/12/12 07:14:38;;;;;;;;;11.20;11.20;;;;;;;;5252089;28;8785;-70
2022/12/12 07:17:09;;;;;;;;;10.60;10.20;;;;;;;;5235683;28;8803;-70
2022/12/12 07:19:41;;;;;;;;;11.60;11.60;;;;;;;;5268955;28;8805;-70
2022/12/12 07:22:30;;;;;;;;;14.20;14.20;;;;;;;;5254569;28;8806;-72
2022/12/12 07:25:19;;;;;;;;;13.40;13.40;;;;;;;;5268809;28;8815;-72
2022/12/12 07:27:51;;;;;;;;;15.60;14.60;;;;;;;;5269977;28;8780;-72
2022/12/12 07:30:41;;;;;;;;;12.80;12.00;;;;;;;;5246498;28;8874;-73
2022/12/12 07:33:15;;;;;;;;;20.80;20.20;;;;;;;;5248794;28;8876;-71
2022/12/12 07:35:47;;;;;;;;;21.80;21.80;;;;;;;;5251328;28;8818;-72
2022/12/12 07:38:38;;;;;;;;;15.80;13.40;;;;;;;;5248352;28;8796;-72
2022/12/12 07:41:11;;;;;;;;;16.00;13.00;;;;;;;;5249192;28;8776;-72
2022/12/12 07:44:01;;;;;;;;;28.60;28.00;;;;;;;;5247428;28;8783;-72
2022/12/12 07:46:50;;;;;;;;;37.60;37.60;;;;;;;;5233130;28;8791;-72
2022/12/12 07:49:22;;;;;;;;;37.00;31.40;;;;;;;;5230869;28;8929;-72
2022/12/12 07:51:53;;;;;;;;;51.80;44.00;;;;;;;;5263093;28;8962;-72
2022/12/12 07:54:24;;;;;;;;;19.20;18.60;;;;;;;;5256689;28;8790;-72
2022/12/12 07:56:57;;;;;;;;;40.60;39.40;;;;;;;;5230502;28;8801;-73
2022/12/12 07:59:28;;;;;;;;;47.40;45.20;;;;;;;;5246841;28;8795;-73
2022/12/12 08:01:59;;;;;;;;;7.40;7.40;;;;;;;;5230244;28;8791;-74
2022/12/12 08:04:31;;;;;;;;;11.75;10.25;;;;;;;;5246947;28;8802;-73
2022/12/12 08:07:02;;;;;;;;;17.80;17.80;;;;;;;;5234084;28;8838;-73
2022/12/12 08:09:34;;;;;;;;;44.40;43.80;;;;;;;;5246354;28;8802;-74
2022/12/12 08:12:05;;;;;;;;;12.40;12.40;;;;;;;;5267329;28;8873;-72
2022/12/12 08:14:36;;;;;;;;;10.80;10.80;;;;;;;;5228932;28;8791;-72
2022/12/12 08:17:07;;;;;;;;;20.50;18.25;;;;;;;;5249094;28;8783;-73
2022/12/12 08:19:56;;;;;;;;;13.40;13.40;;;;;;;;5253432;28;11520;-77
2022/12/12 08:22:27;;;;;;;;;31.60;31.60;;;;;;;;5250256;28;8777;-74
2022/12/12 08:24:58;;;;;;;;;9.00;8.20;;;;;;;;5235533;28;9523;-73
2022/12/12 08:27:29;;;;;;;;;10.00;10.00;;;;;;;;5247714;28;8787;-72
2022/12/12 08:30:00;;;;;;;;;22.25;22.25;;;;;;;;5229665;28;11499;-73
2022/12/12 08:32:31;;;;;;;;;15.80;15.80;;;;;;;;5241628;28;8823;-73
2022/12/12 08:35:02;;;;;;;;;15.00;15.00;;;;;;;;5244807;28;8811;-73
2022/12/12 08:37:34;;;;;;;;;16.60;16.20;;;;;;;;5246100;28;8794;-73
2022/12/12 08:40:06;;;;;;;;;42.00;42.00;;;;;;;;5246426;28;8787;-74
2022/12/12 08:42:36;;;;;;;;;16.40;15.80;;;;;;;;5238640;28;11518;-74
2022/12/12 08:45:07;;;;;;;;;7.00;7.00;;;;;;;;5263050;28;8860;-74
2022/12/12 08:47:38;;;;;;;;;5.80;5.80;;;;;;;;5266435;28;8773;-74
2022/12/12 08:50:10;;;;;;;;;13.00;13.00;;;;;;;;5245848;28;8803;-72
2022/12/12 08:52:41;;;;;;;;;7.80;7.40;;;;;;;;5246637;28;8823;-72
2022/12/12 08:55:12;;;;;;;;;12.00;10.00;;;;;;;;5245639;28;8858;-74
2022/12/12 08:58:01;;;;;;;;;103.20;77.60;;;;;;;;5231252;28;10177;-74
2022/12/12 09:00:32;;;;;;;;;11.60;11.00;;;;;;;;5229406;28;8857;-74
2022/12/12 09:03:03;;;;;;;;;14.50;13.00;;;;;;;;5228736;28;8811;-74
2022/12/12 09:05:34;;;;;;;;;36.00;34.40;;;;;;;;5243947;28;8830;-74
2022/12/12 09:08:24;;;;;;;;;13.00;12.40;;;;;;;;5246603;28;8901;-74
2022/12/12 09:10:55;;;;;;;;;9.50;9.25;;;;;;;;5258585;28;8954;-76
2022/12/12 09:13:26;;;;;;;;;20.80;20.80;;;;;;;;5266064;28;11450;-75
2022/12/12 09:15:57;;;;;;;;;17.00;17.00;;;;;;;;5242534;28;8888;-74
2022/12/12 09:18:28;;;;;;;;;11.20;10.00;;;;;;;;5246078;28;8815;-74
2022/12/12 09:20:59;;;;;;;;;6.00;4.00;;;;;;;;5223289;28;8821;-75
2022/12/12 09:23:30;;;;;;;;;6.60;6.00;;;;;;;;5239180;28;9650;-75
2022/12/12 09:26:05;;;;;;;;;17.00;17.00;;;;;;;;5231056;28;8807;-74
2022/12/12 09:28:36;;;;;;;;;8.00;7.80;;;;;;;;5245382;28;8916;-74
2022/12/12 09:31:25;;;;;;;;;57.80;48.20;;;;;;;;5246201;28;8875;-73
2022/12/12 09:33:56;;;;;;;;;62.00;50.75;;;;;;;;5231057;28;8815;-73
2022/12/12 09:36:27;;;;;;;;;15.00;13.40;;;;;;;;5215534;28;11584;-73
2022/12/12 09:38:58;;;;;;;;;29.80;28.40;;;;;;;;5221350;28;8803;-73
2022/12/12 09:41:30;;;;;;;;;15.80;15.60;;;;;;;;5241949;28;8819;-74
2022/12/12 09:44:01;;;;;;;;;7.00;7.00;;;;;;;;5244859;28;9643;-74
2022/12/12 09:46:38;;;;;;;;;6.00;6.00;;;;;;;;5228671;28;8827;-74
2022/12/12 09:49:26;;;;;;;;;13.20;13.20;;;;;;;;5243093;28;8805;-74
2022/12/12 09:51:58;;;;;;;;;12.80;12.80;;;;;;;;5242434;28;8819;-73
2022/12/12 09:54:30;;;;;;;;;16.60;16.40;;;;;;;;5243577;28;8779;-73
2022/12/12 09:57:03;;;;;;;;;10.00;10.00;;;;;;;;5243370;28;8802;-73
2022/12/12 09:59:53;;;;;;;;;10.80;10.80;;;;;;;;5259457;28;8792;-73
2022/12/12 10:02:43;;;;;;;;;18.00;17.80;;;;;;;;5224499;28;8914;-74
2022/12/12 10:05:27;;;;;;;;;18.80;17.00;;;;;;;;5220094;28;8795;-73
2022/12/12 10:08:16;;;;;;;;;25.80;24.60;;;;;;;;5238418;28;9490;-75
2022/12/12 10:10:50;;;;;;;;;13.20;13.20;;;;;;;;5233405;28;9659;-75
2022/12/12 10:13:24;;;;;;;;;22.20;21.80;;;;;;;;5256132;28;8775;-73
2022/12/12 10:15:58;;;;;;;;;17.00;17.00;;;;;;;;5244788;28;8792;-73
2022/12/12 10:18:33;;;;;;;;;44.20;40.80;;;;;;;;5245273;28;9518;-73
2022/12/12 10:21:08;;;;;;;;;34.80;30.20;;;;;;;;5244692;28;8834;-73
2022/12/12 10:23:43;;;;;;;;;33.40;32.80;;;;;;;;5244695;28;8787;-74
2022/12/12 10:26:19;;;;;;;;;47.00;43.80;;;;;;;;5227964;28;9530;-74
2022/12/12 10:28:56;;;;;;;;;65.40;51.80;;;;;;;;5230664;28;8779;-74
2022/12/12 10:31:33;;;;;;;;;26.40;26.20;;;;;;;;5249027;28;8953;-75
2022/12/12 10:34:10;;;;;;;;;19.80;19.20;;;;;;;;5215595;28;8806;-74
2022/12/12 10:36:59;;;;;;;;;15.40;15.40;;;;;;;;5248596;28;8798;-73
2022/12/12 10:39:40;;;;;;;;;21.80;21.80;;;;;;;;5215664;28;8782;-73
2022/12/12 10:42:23;;;;;;;;;21.40;17.40;;;;;;;;5215340;28;8802;-73
2022/12/12 10:45:08;;;;;;;;;43.40;39.60;;;;;;;;5248979;28;8901;-73
2022/12/12 10:47:39;;;;;;;;;31.20;28.20;;;;;;;;5231960;28;8788;-74
2022/12/12 10:50:10;;;;;;;;;39.60;38.80;;;;;;;;5249493;28;8795;-74
2022/12/12 10:52:41;;;;;;;;;36.50;33.25;;;;;;;;5248462;28;8854;-73
2022/12/12 10:55:18;;;;;;;;;43.20;41.60;;;;;;;;5253854;28;9728;-74
2022/12/12 10:58:03;;;;;;;;;30.60;30.20;;;;;;;;5269987;28;8809;-74
2022/12/12 11:00:36;;;;;;;;;45.00;41.20;;;;;;;;5230367;28;8821;-75
2022/12/12 11:03:17;;;;;;;;;31.80;31.80;;;;;;;;5227518;28;9584;-74
2022/12/12 11:05:48;;;;;;;;;34.40;33.60;;;;;;;;5240276;28;8787;-74
2022/12/12 11:08:24;;;;;;;;;14.00;14.00;;;;;;;;5223310;28;8803;-74
2022/12/12 11:11:18;;;;;;;;;18.40;18.40;;;;;;;;5244498;28;8846;-74
2022/12/12 11:13:53;;;;;;;;;15.40;14.80;;;;;;;;5218992;28;8794;-75
2022/12/12 11:16:36;;;;;;;;;14.00;14.00;;;;;;;;5223522;28;8783;-76
2022/12/12 11:19:28;;;;;;;;;12.00;12.00;;;;;;;;5247664;28;8791;-74
2022/12/12 11:22:01;;;;;;;;;17.00;16.80;;;;;;;;5223201;28;8820;-74
2022/12/12 11:24:33;;;;;;;;;17.20;16.60;;;;;;;;5247252;28;8811;-74
2022/12/12 11:27:28;;;;;;;;;37.00;35.00;;;;;;;;5234016;28;8807;-73
2022/12/12 11:30:22;;;;;;;;;11.80;11.80;;;;;;;;5217461;28;9525;-75
2022/12/12 11:32:54;;;;;;;;;18.60;17.00;;;;;;;;5239684;28;8954;-74
2022/12/12 11:35:30;;;;;;;;;9.20;9.20;;;;;;;;5233056;28;8846;-74
2022/12/12 11:38:19;;;;;;;;;15.80;15.60;;;;;;;;5231435;28;8767;-73
2022/12/12 11:41:10;;;;;;;;;19.00;17.20;;;;;;;;5247260;28;8810;-73
2022/12/12 11:43:41;;;;;;;;;20.20;19.60;;;;;;;;5248130;28;8809;-75
2022/12/12 11:46:12;;;;;;;;;10.80;10.80;;;;;;;;5266997;28;8824;-75
2022/12/12 11:48:43;;;;;;;;;18.20;18.20;;;;;;;;5230710;28;8783;-73
2022/12/12 11:51:32;;;;;;;;;13.40;13.40;;;;;;;;5260492;28;8928;-74
2022/12/12 11:54:11;;;;;;;;;11.00;10.60;;;;;;;;5250661;28;8967;-74
2022/12/12 11:56:52;;;;;;;;;19.80;18.20;;;;;;;;5218318;28;8815;-74
2022/12/12 11:59:33;;;;;;;;;18.20;17.20;;;;;;;;5261707;28;8795;-73
2022/12/12 12:02:18;;;;;;;;;18.40;17.60;;;;;;;;5230591;28;9633;-74
2022/12/12 12:05:01;;;;;;;;;21.40;20.40;;;;;;;;5230793;28;8783;-75
2022/12/12 12:07:45;;;;;;;;;21.20;21.20;;;;;;;;5247917;28;8953;-74
2022/12/12 12:10:16;;;;;;;;;22.40;21.20;;;;;;;;5231388;28;8836;-75
2022/12/12 12:12:50;;;;;;;;;29.00;26.20;;;;;;;;5231129;28;8807;-75
2022/12/12 12:15:40;;;;;;;;;18.40;18.00;;;;;;;;5268693;28;8846;-74
2022/12/12 12:18:31;;;;;;;;;29.80;28.20;;;;;;;;5241223;28;8775;-74
2022/12/12 12:21:12;;;;;;;;;15.60;14.80;;;;;;;;5232752;28;8791;-76
2022/12/12 12:24:02;;;;;;;;;20.00;20.00;;;;;;;;5243377;28;8796;-75
2022/12/12 12:26:46;;;;;;;;;18.60;18.60;;;;;;;;5231248;28;8800;-75
2022/12/12 12:29:36;;;;;;;;;19.80;18.20;;;;;;;;5247043;28;8779;-74
2022/12/12 12:32:33;;;;;;;;;22.00;21.40;;;;;;;;5240980;28;8807;-76
2022/12/12 12:35:23;;;;;;;;;21.40;19.40;;;;;;;;5216662;28;8811;-76
2022/12/12 12:38:06;;;;;;;;;15.60;15.60;;;;;;;;5250530;28;8785;-74
2022/12/12 12:41:34;;;;;;;;;17.60;17.60;;;;;;;;5267073;28;8811;-75
2022/12/12 12:44:27;;;;;;;;;16.00;16.00;;;;;;;;5203671;28;8831;-75
2022/12/12 12:47:39;;;;;;;;;23.60;23.20;;;;;;;;5188449;28;8796;-74
2022/12/12 12:50:39;;;;;;;;;19.60;18.20;;;;;;;;5246591;28;8787;-75
2022/12/12 12:53:26;;;;;;;;;16.40;14.00;;;;;;;;5246181;28;8852;-73
2022/12/12 12:56:00;;;;;;;;;19.40;18.20;;;;;;;;5229019;28;8775;-74
2022/12/12 12:58:34;;;;;;;;;14.00;14.00;;;;;;;;5230598;28;9474;-75
2022/12/12 13:01:07;;;;;;;;;19.40;19.40;;;;;;;;5243744;28;8884;-75
2022/12/12 13:03:57;;;;;;;;;22.20;21.40;;;;;;;;5212048;28;8803;-74
2022/12/12 13:06:54;;;;;;;;;20.00;16.20;;;;;;;;5230983;28;8929;-74
2022/12/12 13:09:33;;;;;;;;;23.40;22.20;;;;;;;;5245362;28;8775;-74
2022/12/12 13:12:10;;;;;;;;;34.20;32.20;;;;;;;;5218054;28;9460;-74
2022/12/12 13:15:03;;;;;;;;;16.00;15.20;;;;;;;;5260657;28;8803;-73
2022/12/12 13:17:50;;;;;;;;;14.60;14.60;;;;;;;;5244863;28;8772;-73
2022/12/12 13:20:24;;;;;;;;;109.00;86.75;;;;;;;;5244405;28;8809;-74
2022/12/12 13:23:13;;;;;;;;;30.60;29.40;;;;;;;;5243685;28;8835;-75
2022/12/12 13:26:11;;;;;;;;;14.40;14.20;;;;;;;;5231598;28;9592;-74
2022/12/12 13:28:48;;;;;;;;;20.00;19.20;;;;;;;;5222491;28;8814;-77
2022/12/12 13:31:38;;;;;;;;;14.00;14.00;;;;;;;;5243689;28;8818;-74
2022/12/12 13:34:22;;;;;;;;;6.80;6.80;;;;;;;;5237187;28;8807;-74
2022/12/12 13:36:56;;;;;;;;;60.60;48.60;;;;;;;;5245836;28;8813;-74
2022/12/12 13:39:34;;;;;;;;;21.00;21.00;;;;;;;;5222790;28;8854;-73
2022/12/12 13:42:07;;;;;;;;;45.40;36.20;;;;;;;;5248215;28;8792;-74
2022/12/12 13:44:38;;;;;;;;;30.80;27.20;;;;;;;;5227917;28;9573;-72
2022/12/12 13:47:30;;;;;;;;;14.60;13.80;;;;;;;;5244500;28;8783;-74
2022/12/12 13:50:07;;;;;;;;;20.00;17.60;;;;;;;;5192442;28;8868;-72
2022/12/12 13:52:41;;;;;;;;;23.40;19.00;;;;;;;;5248706;28;8849;-73
2022/12/12 13:55:12;;;;;;;;;27.40;27.20;;;;;;;;5232740;28;8809;-73
2022/12/12 13:57:56;;;;;;;;;23.60;23.40;;;;;;;;5229660;28;8821;-73
2022/12/12 14:00:28;;;;;;;;;16.00;15.60;;;;;;;;5245995;28;8836;-73
2022/12/12 14:03:27;;;;;;;;;15.80;14.80;;;;;;;;5245292;28;8795;-73
2022/12/12 14:06:09;;;;;;;;;12.80;12.20;;;;;;;;5244927;28;8783;-73
2022/12/12 14:08:46;;;;;;;;;14.40;14.00;;;;;;;;5227607;28;8795;-71
2022/12/12 14:11:38;;;;;;;;;18.60;17.40;;;;;;;;5228455;28;8945;-71
2022/12/12 14:14:35;;;;;;;;;22.00;17.40;;;;;;;;5244089;28;8807;-72
2022/12/12 14:17:18;;;;;;;;;27.20;25.20;;;;;;;;5245140;28;8857;-73
2022/12/12 14:19:50;;;;;;;;;26.40;23.60;;;;;;;;5246029;28;8791;-73
2022/12/12 14:22:25;;;;;;;;;14.20;14.20;;;;;;;;5259144;28;8931;-72
2022/12/12 14:25:16;;;;;;;;;17.40;17.00;;;;;;;;5248496;28;8780;-72
2022/12/12 14:28:14;;;;;;;;;19.80;19.80;;;;;;;;5265833;28;8830;-72
2022/12/12 14:30:55;;;;;;;;;24.00;24.00;;;;;;;;5266534;28;8777;-72
2022/12/12 14:33:42;;;;;;;;;20.60;20.40;;;;;;;;5235829;28;8787;-73
2022/12/12 14:36:16;;;;;;;;;13.60;12.00;;;;;;;;5228034;28;8807;-73
2022/12/12 14:38:50;;;;;;;;;17.60;14.40;;;;;;;;5232785;28;8792;-71
2022/12/12 14:41:24;;;;;;;;;38.20;36.80;;;;;;;;5224719;28;8801;-72
2022/12/12 14:43:57;;;;;;;;;17.40;14.20;;;;;;;;5246549;28;8799;-72
2022/12/12 14:46:30;;;;;;;;;15.40;15.20;;;;;;;;5247584;28;8780;-71
2022/12/12 14:49:02;;;;;;;;;20.60;19.40;;;;;;;;5263454;28;8820;-72
2022/12/12 14:51:34;;;;;;;;;16.80;14.80;;;;;;;;5262144;28;8868;-72
2022/12/12 14:54:12;;;;;;;;;14.00;14.00;;;;;;;;5229412;28;8813;-71
2022/12/12 14:56:46;;;;;;;;;14.40;14.20;;;;;;;;5243623;28;8831;-71
2022/12/12 14:59:22;;;;;;;;;16.80;16.40;;;;;;;;5242037;28;9672;-72
2022/12/12 15:01:55;;;;;;;;;16.60;12.80;;;;;;;;5241621;28;8807;-74
2022/12/12 15:04:28;;;;;;;;;18.80;18.20;;;;;;;;5224785;28;8811;-73
2022/12/12 15:07:00;;;;;;;;;16.60;16.60;;;;;;;;5227674;28;8801;-73
2022/12/12 15:09:32;;;;;;;;;14.00;14.00;;;;;;;;5245205;28;8812;-73
2022/12/12 15:12:24;;;;;;;;;9.80;9.80;;;;;;;;5244658;28;8815;-73
2022/12/12 15:14:55;;;;;;;;;22.00;17.20;;;;;;;;5242815;28;8917;-71
2022/12/12 15:17:31;;;;;;;;;12.20;12.20;;;;;;;;5245737;28;8771;-72
2022/12/12 15:20:08;;;;;;;;;11.80;11.80;;;;;;;;5229502;28;8919;-73
2022/12/12 15:22:50;;;;;;;;;11.80;11.80;;;;;;;;5246892;28;8807;-72
2022/12/12 15:25:32;;;;;;;;;11.80;11.80;;;;;;;;5224408;28;8822;-72
2022/12/12 15:28:03;;;;;;;;;15.20;15.20;;;;;;;;5228603;28;8810;-72
2022/12/12 15:30:35;;;;;;;;;15.20;14.80;;;;;;;;5229915;28;8821;-72
2022/12/12 15:33:20;;;;;;;;;12.00;11.60;;;;;;;;5229092;28;8803;-71
2022/12/12 15:36:22;;;;;;;;;23.60;22.40;;;;;;;;5246610;28;8803;-71
2022/12/12 15:39:12;;;;;;;;;24.60;23.80;;;;;;;;5254152;28;8828;-72
2022/12/12 15:41:44;;;;;;;;;13.20;13.20;;;;;;;;5232737;28;8808;-72
2022/12/12 15:44:35;;;;;;;;;15.40;15.40;;;;;;;;5259500;28;8820;-73
2022/12/12 15:47:09;;;;;;;;;15.40;15.40;;;;;;;;5234762;28;8776;-72
2022/12/12 15:49:41;;;;;;;;;12.20;11.40;;;;;;;;5230173;28;8787;-71
2022/12/12 15:52:30;;;;;;;;;10.20;10.20;;;;;;;;5230207;28;8850;-73
2022/12/12 15:55:03;;;;;;;;;10.40;10.40;;;;;;;;5213889;28;8852;-71
2022/12/12 15:57:52;;;;;;;;;7.60;7.60;;;;;;;;5263722;28;8929;-71